sensor_id;sensor_type;location;lat;lon;timestamp;temperature;humidity
67750;DHT22;54550;48.838;8.828;2023-10-09T00:01:28;11.80;99.90
67750;DHT22;54550;48.838;8.828;2023-10-09T00:03:53;11.70;99.90
67750;DHT22;54550;48.838;8.828;2023-10-09T00:06:22;11.70;99.90
67750;DHT22;54550;48.838;8.828;2023-10-09T00:09:05;11.80;99.90
67750;DHT22;54550;48.838;8.828;2023-10-09T00:11:50;11.80;99.90
67750;DHT22;54550;48.838;8.828;2023-10-09T00:14:29;11.80;99.90
67750;DHT22;54550;48.838;8.828;2023-10-09T00:16:59;11.70;99.90
67750;DHT22;54550;48.838;8.828;2023-10-09T00:19:37;11.50;99.90
67750;DHT22;54550;48.838;8.828;2023-10-09T00:22:02;11.30;99.90
67750;DHT22;54550;48.838;8.828;2023-10-09T00:24:36;11.30;99.90
67750;DHT22;54550;48.838;8.828;2023-10-09T00:27:06;11.30;99.90
67750;DHT22;54550;48.838;8.828;2023-10-09T00:29:40;11.40;99.90
67750;DHT22;54550;48.838;8.828;2023-10-09T00:32:12;11.70;99.90
67750;DHT22;54550;48.838;8.828;2023-10-09T00:34:58;11.80;99.90
67750;DHT22;54550;48.838;8.828;2023-10-09T00:37:39;12.00;99.90
67750;DHT22;54550;48.838;8.828;2023-10-09T00:40:05;12.10;99.90
67750;DHT22;54550;48.838;8.828;2023-10-09T00:42:45;12.20;99.90
67750;DHT22;54550;48.838;8.828;2023-10-09T00:45:11;12.20;99.90
67750;DHT22;54550;48.838;8.828;2023-10-09T00:47:41;12.20;99.90
67750;DHT22;54550;48.838;8.828;2023-10-09T00:50:09;12.40;99.90
67750;DHT22;54550;48.838;8.828;2023-10-09T00:52:42;12.50;99.90
67750;DHT22;54550;48.838;8.828;2023-10-09T00:55:14;12.60;99.90
67750;DHT22;54550;48.838;8.828;2023-10-09T00:57:47;12.70;99.90
67750;DHT22;54550;48.838;8.828;2023-10-09T01:00:16;12.60;99.90
67750;DHT22;54550;48.838;8.828;2023-10-09T01:03:00;12.50;99.90
67750;DHT22;54550;48.838;8.828;2023-10-09T01:06:01;12.50;99.90
67750;DHT22;54550;48.838;8.828;2023-10-09T01:08:39;12.50;99.90
67750;DHT22;54550;48.838;8.828;2023-10-09T01:11:06;12.50;99.90
67750;DHT22;54550;48.838;8.828;2023-10-09T01:13:38;12.50;99.90
67750;DHT22;54550;48.838;8.828;2023-10-09T01:16:17;12.50;99.90
67750;DHT22;54550;48.838;8.828;2023-10-09T01:18:43;12.40;99.90
67750;DHT22;54550;48.838;8.828;2023-10-09T01:21:10;12.20;99.90
67750;DHT22;54550;48.838;8.828;2023-10-09T01:23:44;12.10;99.90
67750;DHT22;54550;48.838;8.828;2023-10-09T01:26:34;11.90;99.90
67750;DHT22;54550;48.838;8.828;2023-10-09T01:29:08;11.70;99.90
67750;DHT22;54550;48.838;8.828;2023-10-09T01:31:46;11.70;99.90
67750;DHT22;54550;48.838;8.828;2023-10-09T01:34:26;11.80;99.90
67750;DHT22;54550;48.838;8.828;2023-10-09T01:37:19;11.80;99.90
67750;DHT22;54550;48.838;8.828;2023-10-09T01:39:49;12.10;99.90
67750;DHT22;54550;48.838;8.828;2023-10-09T01:42:16;12.30;99.90
67750;DHT22;54550;48.838;8.828;2023-10-09T01:45:11;12.40;99.90
67750;DHT22;54550;48.838;8.828;2023-10-09T01:47:37;12.50;99.90
67750;DHT22;54550;48.838;8.828;2023-10-09T01:50:06;12.50;99.90
67750;DHT22;54550;48.838;8.828;2023-10-09T01:52:38;12.40;99.90
67750;DHT22;54550;48.838;8.828;2023-10-09T01:55:04;12.30;99.90
67750;DHT22;54550;48.838;8.828;2023-10-09T01:57:48;12.30;99.90
67750;DHT22;54550;48.838;8.828;2023-10-09T02:00:14;12.50;99.90
67750;DHT22;54550;48.838;8.828;2023-10-09T02:02:48;12.70;99.90
67750;DHT22;54550;48.838;8.828;2023-10-09T02:05:16;12.70;99.90
67750;DHT22;54550;48.838;8.828;2023-10-09T02:07:42;12.80;99.90
67750;DHT22;54550;48.838;8.828;2023-10-09T02:10:18;12.70;99.90
67750;DHT22;54550;48.838;8.828;2023-10-09T02:12:56;12.60;99.90
67750;DHT22;54550;48.838;8.828;2023-10-09T02:15:26;12.50;99.90
67750;DHT22;54550;48.838;8.828;2023-10-09T02:23:38;12.50;99.90
67750;DHT22;54550;48.838;8.828;2023-10-09T02:26:11;12.50;99.90
67750;DHT22;54550;48.838;8.828;2023-10-09T02:29:05;12.50;99.90
67750;DHT22;54550;48.838;8.828;2023-10-09T02:31:41;12.50;99.90
67750;DHT22;54550;48.838;8.828;2023-10-09T02:34:09;12.50;99.90
67750;DHT22;54550;48.838;8.828;2023-10-09T02:36:36;12.40;99.90
67750;DHT22;54550;48.838;8.828;2023-10-09T02:39:08;12.40;99.90
67750;DHT22;54550;48.838;8.828;2023-10-09T02:41:52;12.40;99.90
67750;DHT22;54550;48.838;8.828;2023-10-09T02:44:21;12.50;99.90
67750;DHT22;54550;48.838;8.828;2023-10-09T02:46:50;12.60;99.90
67750;DHT22;54550;48.838;8.828;2023-10-09T02:49:16;12.60;99.90
67750;DHT22;54550;48.838;8.828;2023-10-09T02:51:42;12.50;99.90
67750;DHT22;54550;48.838;8.828;2023-10-09T02:54:08;12.40;99.90
67750;DHT22;54550;48.838;8.828;2023-10-09T02:56:46;12.40;99.90
67750;DHT22;54550;48.838;8.828;2023-10-09T02:59:22;12.40;99.90
67750;DHT22;54550;48.838;8.828;2023-10-09T03:01:48;12.50;99.90
67750;DHT22;54550;48.838;8.828;2023-10-09T03:04:15;12.50;99.90
67750;DHT22;54550;48.838;8.828;2023-10-09T03:06:41;12.50;99.90
67750;DHT22;54550;48.838;8.828;2023-10-09T03:09:18;12.40;99.90
67750;DHT22;54550;48.838;8.828;2023-10-09T03:11:53;12.30;99.90
67750;DHT22;54550;48.838;8.828;2023-10-09T03:14:31;12.30;99.90
67750;DHT22;54550;48.838;8.828;2023-10-09T03:16:57;12.20;99.90
67750;DHT22;54550;48.838;8.828;2023-10-09T03:19:25;12.30;99.90
67750;DHT22;54550;48.838;8.828;2023-10-09T03:21:51;12.50;99.90
67750;DHT22;54550;48.838;8.828;2023-10-09T03:24:17;12.50;99.90
67750;DHT22;54550;48.838;8.828;2023-10-09T03:26:43;12.60;99.90
67750;DHT22;54550;48.838;8.828;2023-10-09T03:29:11;12.70;99.90
67750;DHT22;54550;48.838;8.828;2023-10-09T03:31:37;12.70;99.90
67750;DHT22;54550;48.838;8.828;2023-10-09T03:34:06;12.70;99.90
67750;DHT22;54550;48.838;8.828;2023-10-09T03:36:34;12.70;99.90
67750;DHT22;54550;48.838;8.828;2023-10-09T03:39:07;12.60;99.90
67750;DHT22;54550;48.838;8.828;2023-10-09T03:41:52;12.60;99.90
67750;DHT22;54550;48.838;8.828;2023-10-09T03:44:19;12.60;99.90
67750;DHT22;54550;48.838;8.828;2023-10-09T03:46:45;12.60;99.90
67750;DHT22;54550;48.838;8.828;2023-10-09T03:49:11;12.50;99.90
67750;DHT22;54550;48.838;8.828;2023-10-09T03:51:38;12.50;99.90
67750;DHT22;54550;48.838;8.828;2023-10-09T03:54:05;12.50;99.90
67750;DHT22;54550;48.838;8.828;2023-10-09T03:56:33;12.50;99.90
67750;DHT22;54550;48.838;8.828;2023-10-09T03:58:59;12.50;99.90
67750;DHT22;54550;48.838;8.828;2023-10-09T04:01:26;12.60;99.90
67750;DHT22;54550;48.838;8.828;2023-10-09T04:03:58;12.60;99.90
67750;DHT22;54550;48.838;8.828;2023-10-09T04:06:30;12.60;99.90
67750;DHT22;54550;48.838;8.828;2023-10-09T04:09:08;12.70;99.90
67750;DHT22;54550;48.838;8.828;2023-10-09T04:11:53;12.70;99.90
67750;DHT22;54550;48.838;8.828;2023-10-09T04:14:38;12.70;99.90
67750;DHT22;54550;48.838;8.828;2023-10-09T04:17:13;12.60;99.90
67750;DHT22;54550;48.838;8.828;2023-10-09T04:19:57;12.40;99.90
67750;DHT22;54550;48.838;8.828;2023-10-09T04:22:54;12.20;99.90
67750;DHT22;54550;48.838;8.828;2023-10-09T04:25:31;12.00;99.90
67750;DHT22;54550;48.838;8.828;2023-10-09T04:28:08;11.90;99.90
67750;DHT22;54550;48.838;8.828;2023-10-09T04:30:47;11.70;99.90
67750;DHT22;54550;48.838;8.828;2023-10-09T04:33:19;11.60;99.90
67750;DHT22;54550;48.838;8.828;2023-10-09T04:36:08;11.60;99.90
67750;DHT22;54550;48.838;8.828;2023-10-09T04:38:46;11.50;99.90
67750;DHT22;54550;48.838;8.828;2023-10-09T04:41:23;11.40;99.90
67750;DHT22;54550;48.838;8.828;2023-10-09T04:44:00;11.50;99.90
67750;DHT22;54550;48.838;8.828;2023-10-09T04:46:48;11.60;99.90
67750;DHT22;54550;48.838;8.828;2023-10-09T04:49:33;11.60;99.90
67750;DHT22;54550;48.838;8.828;2023-10-09T04:52:18;11.60;99.90
67750;DHT22;54550;48.838;8.828;2023-10-09T04:54:45;11.70;99.90
67750;DHT22;54550;48.838;8.828;2023-10-09T04:57:29;11.70;99.90
67750;DHT22;54550;48.838;8.828;2023-10-09T04:59:55;11.60;99.90
67750;DHT22;54550;48.838;8.828;2023-10-09T05:02:24;11.60;99.90
67750;DHT22;54550;48.838;8.828;2023-10-09T05:04:50;11.60;99.90
67750;DHT22;54550;48.838;8.828;2023-10-09T05:07:38;11.60;99.90
67750;DHT22;54550;48.838;8.828;2023-10-09T05:10:22;11.50;99.90
67750;DHT22;54550;48.838;8.828;2023-10-09T05:12:51;11.50;99.90
67750;DHT22;54550;48.838;8.828;2023-10-09T05:15:23;11.50;99.90
67750;DHT22;54550;48.838;8.828;2023-10-09T05:17:54;11.50;99.90
67750;DHT22;54550;48.838;8.828;2023-10-09T05:20:25;11.40;99.90
67750;DHT22;54550;48.838;8.828;2023-10-09T05:22:53;11.40;99.90
67750;DHT22;54550;48.838;8.828;2023-10-09T05:25:27;11.40;99.90
67750;DHT22;54550;48.838;8.828;2023-10-09T05:28:19;11.30;99.90
67750;DHT22;54550;48.838;8.828;2023-10-09T05:30:51;11.30;99.90
67750;DHT22;54550;48.838;8.828;2023-10-09T05:33:29;11.30;99.90
67750;DHT22;54550;48.838;8.828;2023-10-09T05:35:54;11.30;99.90
67750;DHT22;54550;48.838;8.828;2023-10-09T05:38:58;11.20;99.90
67750;DHT22;54550;48.838;8.828;2023-10-09T05:41:27;11.20;99.90
67750;DHT22;54550;48.838;8.828;2023-10-09T05:44:11;11.20;99.90
67750;DHT22;54550;48.838;8.828;2023-10-09T05:47:03;11.30;99.90
67750;DHT22;54550;48.838;8.828;2023-10-09T05:49:49;11.30;99.90
67750;DHT22;54550;48.838;8.828;2023-10-09T05:52:26;11.40;99.90
67750;DHT22;54550;48.838;8.828;2023-10-09T05:55:19;11.40;99.90
67750;DHT22;54550;48.838;8.828;2023-10-09T05:58:05;11.70;99.90
67750;DHT22;54550;48.838;8.828;2023-10-09T06:00:50;12.10;99.90
67750;DHT22;54550;48.838;8.828;2023-10-09T06:03:51;12.30;99.90
67750;DHT22;54550;48.838;8.828;2023-10-09T06:06:39;12.60;99.90
67750;DHT22;54550;48.838;8.828;2023-10-09T06:09:11;12.70;99.90
67750;DHT22;54550;48.838;8.828;2023-10-09T06:11:43;12.80;99.90
67750;DHT22;54550;48.838;8.828;2023-10-09T06:14:18;12.90;99.90
67750;DHT22;54550;48.838;8.828;2023-10-09T06:16:57;13.10;99.90
67750;DHT22;54550;48.838;8.828;2023-10-09T06:19:26;13.20;99.90
67750;DHT22;54550;48.838;8.828;2023-10-09T06:21:54;13.20;99.90
67750;DHT22;54550;48.838;8.828;2023-10-09T06:24:40;13.30;99.90
67750;DHT22;54550;48.838;8.828;2023-10-09T06:27:20;13.70;99.90
67750;DHT22;54550;48.838;8.828;2023-10-09T06:29:55;14.20;99.90
67750;DHT22;54550;48.838;8.828;2023-10-09T06:32:41;14.70;99.90
67750;DHT22;54550;48.838;8.828;2023-10-09T06:35:47;15.10;99.90
67750;DHT22;54550;48.838;8.828;2023-10-09T06:38:19;15.90;99.90
67750;DHT22;54550;48.838;8.828;2023-10-09T06:40:48;16.70;99.90
67750;DHT22;54550;48.838;8.828;2023-10-09T06:43:18;17.40;99.90
67750;DHT22;54550;48.838;8.828;2023-10-09T06:46:01;18.00;99.90
67750;DHT22;54550;48.838;8.828;2023-10-09T06:48:49;18.50;98.80
67750;DHT22;54550;48.838;8.828;2023-10-09T06:51:21;18.90;98.10
67750;DHT22;54550;48.838;8.828;2023-10-09T06:53:57;19.10;97.80
67750;DHT22;54550;48.838;8.828;2023-10-09T06:56:31;19.20;97.20
67750;DHT22;54550;48.838;8.828;2023-10-09T06:59:04;19.30;96.60
67750;DHT22;54550;48.838;8.828;2023-10-09T07:01:41;19.40;96.70
67750;DHT22;54550;48.838;8.828;2023-10-09T07:04:13;19.50;96.20
67750;DHT22;54550;48.838;8.828;2023-10-09T07:06:45;19.50;96.50
67750;DHT22;54550;48.838;8.828;2023-10-09T07:09:12;19.50;96.40
67750;DHT22;54550;48.838;8.828;2023-10-09T07:11:42;19.60;96.10
67750;DHT22;54550;48.838;8.828;2023-10-09T07:14:11;19.60;95.80
67750;DHT22;54550;48.838;8.828;2023-10-09T07:17:01;19.70;95.90
67750;DHT22;54550;48.838;8.828;2023-10-09T07:19:27;19.80;95.30
67750;DHT22;54550;48.838;8.828;2023-10-09T07:22:05;19.90;95.50
67750;DHT22;54550;48.838;8.828;2023-10-09T07:24:42;19.90;95.30
67750;DHT22;54550;48.838;8.828;2023-10-09T07:27:17;19.80;95.20
67750;DHT22;54550;48.838;8.828;2023-10-09T07:30:04;19.90;95.30
67750;DHT22;54550;48.838;8.828;2023-10-09T07:32:50;19.70;95.80
67750;DHT22;54550;48.838;8.828;2023-10-09T07:35:18;19.60;95.80
67750;DHT22;54550;48.838;8.828;2023-10-09T07:38:03;19.50;96.40
67750;DHT22;54550;48.838;8.828;2023-10-09T07:40:29;19.50;95.60
67750;DHT22;54550;48.838;8.828;2023-10-09T07:42:57;19.60;95.40
67750;DHT22;54550;48.838;8.828;2023-10-09T07:45:30;19.70;95.10
67750;DHT22;54550;48.838;8.828;2023-10-09T07:47:55;19.90;94.60
67750;DHT22;54550;48.838;8.828;2023-10-09T07:50:38;20.10;94.40
67750;DHT22;54550;48.838;8.828;2023-10-09T07:53:06;20.20;94.10
67750;DHT22;54550;48.838;8.828;2023-10-09T07:55:54;20.30;94.00
67750;DHT22;54550;48.838;8.828;2023-10-09T07:58:32;20.40;94.10
67750;DHT22;54550;48.838;8.828;2023-10-09T08:00:59;20.50;93.80
67750;DHT22;54550;48.838;8.828;2023-10-09T08:03:42;20.50;94.60
67750;DHT22;54550;48.838;8.828;2023-10-09T08:06:14;20.50;93.90
67750;DHT22;54550;48.838;8.828;2023-10-09T08:08:58;20.40;94.80
67750;DHT22;54550;48.838;8.828;2023-10-09T08:11:27;20.50;95.40
67750;DHT22;54550;48.838;8.828;2023-10-09T08:14:11;20.50;94.80
67750;DHT22;54550;48.838;8.828;2023-10-09T08:17:06;20.60;94.40
67750;DHT22;54550;48.838;8.828;2023-10-09T08:19:46;20.60;94.70
67750;DHT22;54550;48.838;8.828;2023-10-09T08:22:36;20.60;94.70
67750;DHT22;54550;48.838;8.828;2023-10-09T08:25:12;20.50;94.60
67750;DHT22;54550;48.838;8.828;2023-10-09T08:27:53;20.60;95.10
67750;DHT22;54550;48.838;8.828;2023-10-09T08:30:24;20.50;94.80
67750;DHT22;54550;48.838;8.828;2023-10-09T08:32:50;20.50;95.20
67750;DHT22;54550;48.838;8.828;2023-10-09T08:35:33;20.50;95.30
67750;DHT22;54550;48.838;8.828;2023-10-09T08:38:01;20.40;95.10
67750;DHT22;54550;48.838;8.828;2023-10-09T08:40:49;20.40;95.40
67750;DHT22;54550;48.838;8.828;2023-10-09T08:43:18;20.30;95.60
67750;DHT22;54550;48.838;8.828;2023-10-09T08:45:47;20.40;95.60
67750;DHT22;54550;48.838;8.828;2023-10-09T08:48:14;20.40;95.70
67750;DHT22;54550;48.838;8.828;2023-10-09T08:50:47;20.40;95.70
67750;DHT22;54550;48.838;8.828;2023-10-09T08:53:14;20.50;95.60
67750;DHT22;54550;48.838;8.828;2023-10-09T08:55:41;20.50;95.20
67750;DHT22;54550;48.838;8.828;2023-10-09T08:58:07;20.60;95.10
67750;DHT22;54550;48.838;8.828;2023-10-09T09:00:42;20.70;95.00
67750;DHT22;54550;48.838;8.828;2023-10-09T09:03:14;20.70;94.70
67750;DHT22;54550;48.838;8.828;2023-10-09T09:05:45;20.80;94.80
67750;DHT22;54550;48.838;8.828;2023-10-09T09:08:25;20.90;94.40
67750;DHT22;54550;48.838;8.828;2023-10-09T09:10:59;20.90;94.60
67750;DHT22;54550;48.838;8.828;2023-10-09T09:16:21;21.10;94.60
67750;DHT22;54550;48.838;8.828;2023-10-09T09:18:51;21.10;94.70
67750;DHT22;54550;48.838;8.828;2023-10-09T09:21:21;21.10;94.90
67750;DHT22;54550;48.838;8.828;2023-10-09T09:23:57;21.10;94.70
67750;DHT22;54550;48.838;8.828;2023-10-09T09:26:38;21.20;94.70
67750;DHT22;54550;48.838;8.828;2023-10-09T09:29:10;21.30;95.20
67750;DHT22;54550;48.838;8.828;2023-10-09T09:31:36;21.40;94.90
67750;DHT22;54550;48.838;8.828;2023-10-09T09:34:07;21.40;95.10
67750;DHT22;54550;48.838;8.828;2023-10-09T09:36:56;21.50;95.00
67750;DHT22;54550;48.838;8.828;2023-10-09T09:39:26;21.60;95.00
67750;DHT22;54550;48.838;8.828;2023-10-09T09:41:56;21.60;95.10
67750;DHT22;54550;48.838;8.828;2023-10-09T09:44:23;21.70;95.10
67750;DHT22;54550;48.838;8.828;2023-10-09T09:46:57;22.00;95.40
67750;DHT22;54550;48.838;8.828;2023-10-09T09:49:27;22.20;95.20
67750;DHT22;54550;48.838;8.828;2023-10-09T09:51:58;22.40;94.90
67750;DHT22;54550;48.838;8.828;2023-10-09T09:54:23;22.50;95.10
67750;DHT22;54550;48.838;8.828;2023-10-09T09:56:51;22.70;94.80
67750;DHT22;54550;48.838;8.828;2023-10-09T09:59:25;22.80;94.90
67750;DHT22;54550;48.838;8.828;2023-10-09T10:01:57;23.10;94.70
67750;DHT22;54550;48.838;8.828;2023-10-09T10:04:30;23.50;94.40
67750;DHT22;54550;48.838;8.828;2023-10-09T10:07:01;23.30;93.10
67750;DHT22;54550;48.838;8.828;2023-10-09T10:09:39;23.10;92.90
67750;DHT22;54550;48.838;8.828;2023-10-09T10:12:09;23.00;92.50
67750;DHT22;54550;48.838;8.828;2023-10-09T10:14:56;23.10;92.40
67750;DHT22;54550;48.838;8.828;2023-10-09T10:20:25;23.10;91.60
67750;DHT22;54550;48.838;8.828;2023-10-09T10:22:56;23.10;91.60
67750;DHT22;54550;48.838;8.828;2023-10-09T10:25:42;23.00;91.60
67750;DHT22;54550;48.838;8.828;2023-10-09T10:28:19;22.90;91.70
67750;DHT22;54550;48.838;8.828;2023-10-09T10:30:54;23.00;92.00
67750;DHT22;54550;48.838;8.828;2023-10-09T10:33:21;23.10;91.50
67750;DHT22;54550;48.838;8.828;2023-10-09T10:35:48;22.90;91.70
67750;DHT22;54550;48.838;8.828;2023-10-09T10:38:43;22.90;91.00
67750;DHT22;54550;48.838;8.828;2023-10-09T10:41:16;22.80;90.70
67750;DHT22;54550;48.838;8.828;2023-10-09T10:43:43;22.80;90.40
67750;DHT22;54550;48.838;8.828;2023-10-09T10:46:19;22.70;91.10
67750;DHT22;54550;48.838;8.828;2023-10-09T10:49:05;22.70;90.80
67750;DHT22;54550;48.838;8.828;2023-10-09T10:51:49;22.70;91.20
67750;DHT22;54550;48.838;8.828;2023-10-09T10:54:24;22.80;90.50
67750;DHT22;54550;48.838;8.828;2023-10-09T10:56:53;22.80;90.10
67750;DHT22;54550;48.838;8.828;2023-10-09T10:59:23;22.90;89.60
67750;DHT22;54550;48.838;8.828;2023-10-09T11:01:50;23.30;89.80
67750;DHT22;54550;48.838;8.828;2023-10-09T11:04:20;23.60;87.20
67750;DHT22;54550;48.838;8.828;2023-10-09T11:06:55;23.70;89.20
67750;DHT22;54550;48.838;8.828;2023-10-09T11:09:52;23.80;87.00
67750;DHT22;54550;48.838;8.828;2023-10-09T11:15:12;23.70;85.70
67750;DHT22;54550;48.838;8.828;2023-10-09T11:18:00;23.60;86.80
67750;DHT22;54550;48.838;8.828;2023-10-09T11:20:32;23.40;86.60
67750;DHT22;54550;48.838;8.828;2023-10-09T11:22:59;23.30;84.10
67750;DHT22;54550;48.838;8.828;2023-10-09T11:25:42;23.10;86.30
67750;DHT22;54550;48.838;8.828;2023-10-09T11:28:31;22.90;86.90
67750;DHT22;54550;48.838;8.828;2023-10-09T11:31:23;22.90;88.00
67750;DHT22;54550;48.838;8.828;2023-10-09T11:33:50;22.80;87.70
67750;DHT22;54550;48.838;8.828;2023-10-09T11:36:21;22.90;86.60
67750;DHT22;54550;48.838;8.828;2023-10-09T11:38:57;22.80;85.90
67750;DHT22;54550;48.838;8.828;2023-10-09T11:41:42;22.70;86.20
67750;DHT22;54550;48.838;8.828;2023-10-09T11:44:08;22.60;85.30
67750;DHT22;54550;48.838;8.828;2023-10-09T11:47:00;22.60;84.50
67750;DHT22;54550;48.838;8.828;2023-10-09T11:52:14;22.60;83.60
67750;DHT22;54550;48.838;8.828;2023-10-09T11:54:39;22.60;84.50
67750;DHT22;54550;48.838;8.828;2023-10-09T11:57:05;22.50;81.40
67750;DHT22;54550;48.838;8.828;2023-10-09T11:59:31;22.60;79.30
67750;DHT22;54550;48.838;8.828;2023-10-09T12:02:07;22.60;80.20
67750;DHT22;54550;48.838;8.828;2023-10-09T12:04:37;22.60;79.90
67750;DHT22;54550;48.838;8.828;2023-10-09T12:07:10;22.70;80.50
67750;DHT22;54550;48.838;8.828;2023-10-09T12:09:39;22.90;79.50
67750;DHT22;54550;48.838;8.828;2023-10-09T12:12:06;23.00;77.90
67750;DHT22;54550;48.838;8.828;2023-10-09T12:14:33;23.10;77.40
67750;DHT22;54550;48.838;8.828;2023-10-09T12:17:09;23.20;78.70
67750;DHT22;54550;48.838;8.828;2023-10-09T12:19:38;23.40;77.90
67750;DHT22;54550;48.838;8.828;2023-10-09T12:22:06;23.60;77.80
67750;DHT22;54550;48.838;8.828;2023-10-09T12:24:32;24.00;77.70
67750;DHT22;54550;48.838;8.828;2023-10-09T12:26:59;24.30;76.60
67750;DHT22;54550;48.838;8.828;2023-10-09T12:29:25;24.60;75.20
67750;DHT22;54550;48.838;8.828;2023-10-09T12:31:58;24.60;74.20
67750;DHT22;54550;48.838;8.828;2023-10-09T12:34:24;24.60;74.10
67750;DHT22;54550;48.838;8.828;2023-10-09T12:36:53;24.60;75.20
67750;DHT22;54550;48.838;8.828;2023-10-09T12:39:19;24.70;74.20
67750;DHT22;54550;48.838;8.828;2023-10-09T12:41:45;24.80;76.20
67750;DHT22;54550;48.838;8.828;2023-10-09T12:44:11;24.90;72.40
67750;DHT22;54550;48.838;8.828;2023-10-09T12:46:40;24.90;73.50
67750;DHT22;54550;48.838;8.828;2023-10-09T12:49:07;24.90;73.80
67750;DHT22;54550;48.838;8.828;2023-10-09T12:51:32;24.90;71.50
67750;DHT22;54550;48.838;8.828;2023-10-09T12:53:58;24.70;70.90
67750;DHT22;54550;48.838;8.828;2023-10-09T12:56:24;24.60;71.20
67750;DHT22;54550;48.838;8.828;2023-10-09T12:58:59;24.50;71.30
67750;DHT22;54550;48.838;8.828;2023-10-09T13:01:26;24.70;73.50
67750;DHT22;54550;48.838;8.828;2023-10-09T13:03:58;24.90;70.00
67750;DHT22;54550;48.838;8.828;2023-10-09T13:06:25;25.50;70.80
67750;DHT22;54550;48.838;8.828;2023-10-09T13:08:51;26.20;72.40
67750;DHT22;54550;48.838;8.828;2023-10-09T13:11:17;26.20;69.10
67750;DHT22;54550;48.838;8.828;2023-10-09T13:13:44;26.30;71.00
67750;DHT22;54550;48.838;8.828;2023-10-09T13:16:17;26.30;70.00
67750;DHT22;54550;48.838;8.828;2023-10-09T13:18:56;26.00;68.70
67750;DHT22;54550;48.838;8.828;2023-10-09T13:21:23;25.70;67.70
67750;DHT22;54550;48.838;8.828;2023-10-09T13:23:50;25.10;65.10
67750;DHT22;54550;48.838;8.828;2023-10-09T13:26:17;24.60;66.20
67750;DHT22;54550;48.838;8.828;2023-10-09T13:28:47;24.30;68.00
67750;DHT22;54550;48.838;8.828;2023-10-09T13:31:14;24.00;69.10
67750;DHT22;54550;48.838;8.828;2023-10-09T13:33:41;23.60;70.50
67750;DHT22;54550;48.838;8.828;2023-10-09T13:36:11;23.50;70.50
67750;DHT22;54550;48.838;8.828;2023-10-09T13:38:45;23.40;70.50
67750;DHT22;54550;48.838;8.828;2023-10-09T13:41:11;23.40;69.20
67750;DHT22;54550;48.838;8.828;2023-10-09T13:43:43;23.70;70.40
67750;DHT22;54550;48.838;8.828;2023-10-09T13:46:09;24.80;69.80
67750;DHT22;54550;48.838;8.828;2023-10-09T13:48:37;26.00;63.40
67750;DHT22;54550;48.838;8.828;2023-10-09T13:51:12;27.00;60.40
67750;DHT22;54550;48.838;8.828;2023-10-09T13:53:49;27.80;60.90
67750;DHT22;54550;48.838;8.828;2023-10-09T13:56:16;28.60;60.60
67750;DHT22;54550;48.838;8.828;2023-10-09T13:58:49;28.90;58.50
67750;DHT22;54550;48.838;8.828;2023-10-09T14:01:19;29.30;58.30
67750;DHT22;54550;48.838;8.828;2023-10-09T14:03:55;29.10;58.50
67750;DHT22;54550;48.838;8.828;2023-10-09T14:06:21;28.50;59.10
67750;DHT22;54550;48.838;8.828;2023-10-09T14:08:56;28.00;57.80
67750;DHT22;54550;48.838;8.828;2023-10-09T14:11:22;27.90;57.90
67750;DHT22;54550;48.838;8.828;2023-10-09T14:13:47;27.70;56.70
67750;DHT22;54550;48.838;8.828;2023-10-09T14:16:13;27.50;59.60
67750;DHT22;54550;48.838;8.828;2023-10-09T14:18:56;27.50;59.70
67750;DHT22;54550;48.838;8.828;2023-10-09T14:21:29;27.30;57.90
67750;DHT22;54550;48.838;8.828;2023-10-09T14:23:58;26.70;57.80
67750;DHT22;54550;48.838;8.828;2023-10-09T14:26:28;26.50;57.50
67750;DHT22;54550;48.838;8.828;2023-10-09T14:28:55;26.40;58.30
67750;DHT22;54550;48.838;8.828;2023-10-09T14:31:23;26.20;57.90
67750;DHT22;54550;48.838;8.828;2023-10-09T14:33:53;25.90;58.70
67750;DHT22;54550;48.838;8.828;2023-10-09T14:36:20;26.00;59.20
67750;DHT22;54550;48.838;8.828;2023-10-09T14:38:48;26.20;58.90
67750;DHT22;54550;48.838;8.828;2023-10-09T14:41:20;26.20;58.70
67750;DHT22;54550;48.838;8.828;2023-10-09T14:43:52;26.20;58.30
67750;DHT22;54550;48.838;8.828;2023-10-09T14:46:18;25.90;57.90
67750;DHT22;54550;48.838;8.828;2023-10-09T14:48:54;25.70;59.60
67750;DHT22;54550;48.838;8.828;2023-10-09T14:51:21;25.50;60.10
67750;DHT22;54550;48.838;8.828;2023-10-09T14:54:01;25.50;61.20
67750;DHT22;54550;48.838;8.828;2023-10-09T14:56:29;25.50;61.00
67750;DHT22;54550;48.838;8.828;2023-10-09T14:58:58;25.60;61.70
67750;DHT22;54550;48.838;8.828;2023-10-09T15:01:26;25.70;61.40
67750;DHT22;54550;48.838;8.828;2023-10-09T15:04:00;25.80;60.70
67750;DHT22;54550;48.838;8.828;2023-10-09T15:06:27;25.70;62.00
67750;DHT22;54550;48.838;8.828;2023-10-09T15:08:59;25.70;62.70
67750;DHT22;54550;48.838;8.828;2023-10-09T15:11:34;25.70;62.30
67750;DHT22;54550;48.838;8.828;2023-10-09T15:13:59;25.50;62.80
67750;DHT22;54550;48.838;8.828;2023-10-09T15:16:25;25.20;64.20
67750;DHT22;54550;48.838;8.828;2023-10-09T15:18:56;24.80;64.70
67750;DHT22;54550;48.838;8.828;2023-10-09T15:21:23;24.70;67.90
67750;DHT22;54550;48.838;8.828;2023-10-09T15:23:53;24.50;65.70
67750;DHT22;54550;48.838;8.828;2023-10-09T15:26:19;24.30;66.60
67750;DHT22;54550;48.838;8.828;2023-10-09T15:28:46;24.00;65.00
67750;DHT22;54550;48.838;8.828;2023-10-09T15:31:12;23.80;66.10
67750;DHT22;54550;48.838;8.828;2023-10-09T15:33:38;23.70;67.20
67750;DHT22;54550;48.838;8.828;2023-10-09T15:36:16;23.40;67.70
67750;DHT22;54550;48.838;8.828;2023-10-09T15:38:47;23.30;69.90
67750;DHT22;54550;48.838;8.828;2023-10-09T15:41:13;23.20;67.10
67750;DHT22;54550;48.838;8.828;2023-10-09T15:43:41;23.10;68.10
67750;DHT22;54550;48.838;8.828;2023-10-09T15:46:12;23.10;68.50
67750;DHT22;54550;48.838;8.828;2023-10-09T15:48:42;22.90;69.60
67750;DHT22;54550;48.838;8.828;2023-10-09T15:51:11;22.80;70.00
67750;DHT22;54550;48.838;8.828;2023-10-09T15:53:44;22.70;70.00
67750;DHT22;54550;48.838;8.828;2023-10-09T15:56:14;22.60;70.40
67750;DHT22;54550;48.838;8.828;2023-10-09T15:58:40;22.50;70.70
67750;DHT22;54550;48.838;8.828;2023-10-09T16:01:10;22.40;70.90
67750;DHT22;54550;48.838;8.828;2023-10-09T16:03:39;22.40;70.50
67750;DHT22;54550;48.838;8.828;2023-10-09T16:06:06;22.40;70.90
67750;DHT22;54550;48.838;8.828;2023-10-09T16:08:34;22.30;70.70
67750;DHT22;54550;48.838;8.828;2023-10-09T16:11:02;22.30;70.70
67750;DHT22;54550;48.838;8.828;2023-10-09T16:13:27;22.30;71.00
67750;DHT22;54550;48.838;8.828;2023-10-09T16:15:53;22.20;71.80
67750;DHT22;54550;48.838;8.828;2023-10-09T16:18:21;22.00;72.10
67750;DHT22;54550;48.838;8.828;2023-10-09T16:20:47;22.00;70.30
67750;DHT22;54550;48.838;8.828;2023-10-09T16:23:13;21.90;70.10
67750;DHT22;54550;48.838;8.828;2023-10-09T16:25:38;21.90;70.80